Time;durP1;ratioP1;P1;durP2;ratioP2;P2;SDS_P1;SDS_P2;PMS_P1;PMS_P2;Temp;Humidity;BMP_temperature;BMP_pressure;BME280_temperature;BME280_humidity;BME280_pressure;Samples;Min_cycle;Max_cycle;Signal;HPM_P1;HPM_P2
2021/08/02 00:01:29;;;;;;;5.55;2.30;;;;;;;19.04;62.38;100865.03;5077705;28;20054;-58
2021/08/02 00:04:03;;;;;;;7.95;2.35;;;;;;;19.00;62.76;100864.13;5096007;28;20048;-57
2021/08/02 00:06:53;;;;;;;6.78;2.10;;;;;;;19.42;61.37;100872.59;5077526;28;20055;-60
2021/08/02 00:09:23;;;;;;;6.10;2.75;;;;;;;19.08;62.27;100865.91;5095601;28;20047;-56
2021/08/02 00:11:57;;;;;;;6.13;2.60;;;;;;;18.88;63.49;100861.47;5095667;28;20055;-57
2021/08/02 00:14:24;;;;;;;5.65;2.33;;;;;;;19.05;63.18;100858.28;5077475;28;20037;-58
2021/08/02 00:16:52;;;;;;;7.35;2.50;;;;;;;19.04;62.76;100865.03;5095610;28;20048;-59
2021/08/02 00:19:20;;;;;;;5.30;2.50;;;;;;;18.91;63.37;100862.75;5095307;28;20063;-59
2021/08/02 00:21:47;;;;;;;4.30;2.00;;;;;;;19.06;63.19;100861.88;5095478;28;20048;-56
2021/08/02 00:24:16;;;;;;;4.47;2.38;;;;;;;19.05;63.20;100866.66;5095249;28;20048;-58
2021/08/02 00:26:43;;;;;;;9.18;2.53;;;;;;;19.02;63.35;100864.56;5095125;28;20058;-58
2021/08/02 00:29:11;;;;;;;8.23;2.25;;;;;;;18.94;63.51;100864.78;5095140;28;20063;-58
2021/08/02 00:31:38;;;;;;;4.78;2.58;;;;;;;19.01;63.38;100862.16;5077237;28;20051;-60
2021/08/02 00:34:06;;;;;;;5.20;2.53;;;;;;;18.99;63.78;100867.28;5077170;28;20043;-59
2021/08/02 00:36:44;;;;;;;6.25;2.30;;;;;;;19.08;63.76;100870.69;5094941;28;20052;-58
2021/08/02 00:39:51;;;;;;;7.38;2.22;;;;;;;19.09;63.54;100870.31;5095129;28;20071;-61
2021/08/02 00:42:39;;;;;;;14.90;2.70;;;;;;;18.85;64.06;100872.56;5001540;28;20487;-57
2021/08/02 00:45:14;;;;;;;10.40;2.22;;;;;;;18.85;64.20;100865.00;5057015;28;20090;-57
2021/08/02 00:48:08;;;;;;;9.13;2.38;;;;;;;18.85;64.49;100870.59;5057432;28;20051;-59
2021/08/02 00:50:39;;;;;;;4.15;2.55;;;;;;;18.75;64.75;100879.53;5057053;28;20052;-58
2021/08/02 00:53:13;;;;;;;6.30;2.58;;;;;;;18.75;64.68;100881.50;5056906;28;20519;-57
2021/08/02 00:55:46;;;;;;;3.83;2.20;;;;;;;18.81;64.69;100880.84;5076573;28;20052;-59
2021/08/02 00:58:17;;;;;;;4.38;2.40;;;;;;;19.01;64.13;100873.31;5094767;28;20052;-58
2021/08/02 01:00:46;;;;;;;5.72;2.42;;;;;;;18.89;64.13;100870.66;5076329;28;20509;-59
2021/08/02 01:03:14;;;;;;;5.35;2.40;;;;;;;18.64;65.30;100878.47;5094583;28;20051;-59
2021/08/02 01:05:43;;;;;;;4.63;2.40;;;;;;;18.81;64.78;100868.91;5076397;28;20048;-59
2021/08/02 01:08:14;;;;;;;6.80;2.50;;;;;;;18.79;64.66;100862.88;5094680;28;20044;-60
2021/08/02 01:10:50;;;;;;;7.75;2.70;;;;;;;18.64;65.02;100870.09;5076338;28;20055;-57
2021/08/02 01:13:19;;;;;;;6.40;2.70;;;;;;;18.28;66.80;100866.81;5074798;28;20062;-57
2021/08/02 01:15:49;;;;;;;7.35;2.85;;;;;;;18.14;67.20;100866.44;5074084;28;20036;-58
2021/08/02 01:18:21;;;;;;;5.03;2.63;;;;;;;18.27;67.02;100860.41;5074335;28;20056;-58
2021/08/02 01:20:53;;;;;;;5.82;2.20;;;;;;;18.17;67.18;100868.50;5074180;28;20055;-58
2021/08/02 01:23:21;;;;;;;8.77;2.53;;;;;;;18.19;67.17;100868.97;5074080;28;20130;-59
2021/08/02 01:25:56;;;;;;;9.95;2.78;;;;;;;18.22;67.31;100871.06;5073996;28;20047;-58
2021/08/02 01:28:25;;;;;;;8.43;2.80;;;;;;;18.34;67.00;100874.53;5073693;28;20044;-59
2021/08/02 01:30:57;;;;;;;12.65;2.85;;;;;;;18.17;67.35;100872.13;5073655;28;20052;-58
2021/08/02 01:33:38;;;;;;;10.02;2.95;;;;;;;18.15;67.54;100868.09;5055868;28;20435;-56
2021/08/02 01:36:09;;;;;;;4.55;2.25;;;;;;;18.18;67.48;100884.09;5073962;28;20047;-58
2021/08/02 01:38:51;;;;;;;6.70;2.65;;;;;;;18.08;67.91;100881.84;5055604;28;20071;-57
2021/08/02 01:41:22;;;;;;;4.45;2.58;;;;;;;18.26;67.62;100885.88;5023016;28;20048;-57
2021/08/02 01:43:52;;;;;;;6.78;2.72;;;;;;;18.23;67.07;100879.06;5055981;28;20052;-59
2021/08/02 01:46:29;;;;;;;5.50;2.67;;;;;;;17.90;68.58;100884.97;5055606;28;20060;-60
2021/08/02 01:49:17;;;;;;;5.35;2.90;;;;;;;17.67;69.86;100881.19;5055911;28;20060;-57
2021/08/02 01:51:50;;;;;;;6.28;2.72;;;;;;;17.76;69.63;100873.47;5073554;28;20059;-59
2021/08/02 01:54:46;;;;;;;7.85;2.85;;;;;;;17.94;68.87;100869.16;5039789;28;20052;-57
2021/08/02 01:57:34;;;;;;;8.50;2.70;;;;;;;17.81;69.52;100875.19;5055816;28;20048;-56
2021/08/02 02:00:10;;;;;;;12.55;2.88;;;;;;;17.76;70.21;100875.44;5039860;28;20049;-59
2021/08/02 02:03:20;;;;;;;11.18;2.92;;;;;;;17.88;69.65;100872.56;5055100;28;20052;-59
2021/08/02 02:05:59;;;;;;;5.72;3.22;;;;;;;18.04;69.18;100883.72;5055472;28;20040;-58
2021/08/02 02:08:44;;;;;;;7.47;2.88;;;;;;;18.03;69.14;100874.56;5039257;28;20059;-58
2021/08/02 02:11:22;;;;;;;7.30;3.15;;;;;;;17.99;69.24;100873.66;5055704;28;20060;-58
2021/08/02 02:13:59;;;;;;;6.28;3.03;;;;;;;18.01;69.27;100879.66;5055407;28;20056;-58
2021/08/02 02:16:27;;;;;;;11.23;2.83;;;;;;;17.84;69.77;100872.47;5055536;28;20041;-58
2021/08/02 02:19:00;;;;;;;7.55;2.90;;;;;;;17.91;69.80;100875.44;5039360;28;20056;-58
2021/08/02 02:21:30;;;;;;;7.40;2.85;;;;;;;17.96;69.72;100874.38;5038755;28;20063;-57
2021/08/02 02:24:02;;;;;;;8.25;3.05;;;;;;;18.11;69.29;100873.56;5055280;28;20058;-57
2021/08/02 02:26:32;;;;;;;10.57;3.10;;;;;;;18.12;69.09;100869.59;5038665;28;20051;-59
2021/08/02 02:29:05;;;;;;;11.77;3.40;;;;;;;18.17;68.66;100871.31;5073324;28;20057;-57
2021/08/02 02:31:34;;;;;;;13.48;3.00;;;;;;;18.16;68.69;100872.47;5072916;28;20488;-56
2021/08/02 02:34:04;;;;;;;10.70;3.33;;;;;;;18.05;69.07;100871.41;5073250;28;20048;-58
2021/08/02 02:36:32;;;;;;;;;;;;;;;17.97;69.49;100865.63;5039269;28;20049;-60
2021/08/02 02:39:01;;;;;;;8.90;3.55;;;;;;;18.00;69.58;100866.91;5039273;28;19920;-58
2021/08/02 02:41:29;;;;;;;9.73;3.03;;;;;;;18.26;68.85;100874.72;5055032;28;20626;-59
2021/08/02 02:43:57;;;;;;;7.18;2.80;;;;;;;18.19;69.05;100872.56;5055904;28;20063;-57
2021/08/02 02:46:25;;;;;;;10.88;3.05;;;;;;;18.31;68.71;100871.66;5039319;28;20055;-58
2021/08/02 02:48:57;;;;;;;6.88;2.97;;;;;;;18.13;69.05;100876.00;5039670;28;20049;-57
2021/08/02 02:51:27;;;;;;;8.05;3.30;;;;;;;18.11;69.18;100881.13;5041740;28;20052;-58
2021/08/02 02:53:57;;;;;;;9.93;3.25;;;;;;;18.09;69.05;100878.69;5058948;28;20064;-59
2021/08/02 02:56:26;;;;;;;10.48;3.33;;;;;;;18.05;69.35;100882.53;5050282;28;20060;-59
2021/08/02 02:58:55;;;;;;;10.77;3.03;;;;;;;18.09;69.33;100883.44;5096981;28;20055;-59
2021/08/02 03:01:29;;;;;;;14.25;4.65;;;;;;;18.14;69.28;100885.97;5078536;28;20056;-56
2021/08/02 03:03:59;;;;;;;7.65;3.60;;;;;;;18.05;69.44;100879.75;5078846;28;20048;-58
2021/08/02 03:06:29;;;;;;;8.00;3.13;;;;;;;17.98;69.67;100878.44;5062341;28;20051;-57
2021/08/02 03:08:59;;;;;;;6.33;3.30;;;;;;;18.04;69.51;100872.56;5078751;28;20055;-58
2021/08/02 03:11:27;;;;;;;8.80;3.42;;;;;;;18.06;69.51;100875.81;5062074;28;20289;-59
2021/08/02 03:13:54;;;;;;;8.25;3.40;;;;;;;18.07;69.38;100872.66;5096798;28;20513;-59
2021/08/02 03:16:25;;;;;;;7.97;3.30;;;;;;;18.02;69.69;100883.28;5078227;28;20044;-58
2021/08/02 03:18:53;;;;;;;8.68;3.13;;;;;;;17.98;69.63;100880.41;5096568;28;20052;-58
2021/08/02 03:21:21;;;;;;;8.07;3.38;;;;;;;18.02;69.35;100886.06;5078454;28;20449;-60
2021/08/02 03:24:00;;;;;;;7.40;3.00;;;;;;;17.86;69.92;100888.84;5096486;28;20058;-58
2021/08/02 03:26:34;;;;;;;10.45;3.25;;;;;;;17.60;70.97;100880.16;5078393;28;20048;-58
2021/08/02 03:29:07;;;;;;;5.72;3.20;;;;;;;17.78;70.87;100887.81;5078414;28;20644;-58
2021/08/02 03:32:04;;;;;;;7.53;3.03;;;;;;;17.92;69.86;100885.41;5096349;28;20048;-59
2021/08/02 03:34:33;;;;;;;9.88;3.33;;;;;;;17.82;70.17;100894.31;5058170;28;20067;-58
2021/08/02 03:37:05;;;;;;;7.28;2.70;;;;;;;17.75;70.73;100896.09;5078294;28;20047;-57
2021/08/02 03:39:32;;;;;;;12.02;3.28;;;;;;;17.52;71.49;100897.88;5078277;28;20060;-58
2021/08/02 03:42:01;;;;;;;6.72;3.40;;;;;;;17.49;71.50;100902.16;5077924;28;20048;-58
2021/08/02 03:44:29;;;;;;;8.32;3.20;;;;;;;17.76;70.41;100904.13;5078150;28;20060;-58
2021/08/02 03:46:56;;;;;;;8.20;3.30;;;;;;;17.56;71.12;100895.97;5078395;28;20044;-59
2021/08/02 03:49:23;;;;;;;8.82;3.22;;;;;;;17.37;71.99;100909.72;5078529;28;20127;-58
2021/08/02 03:51:59;;;;;;;7.70;3.58;;;;;;;17.44;72.13;100907.94;5078341;28;20063;-57
2021/08/02 03:54:29;;;;;;;6.68;3.45;;;;;;;17.34;72.24;100913.22;5096381;28;20055;-58
2021/08/02 03:56:57;;;;;;;8.93;3.83;;;;;;;17.51;71.83;100902.63;5083660;28;20060;-59
2021/08/02 03:59:25;;;;;;;9.23;3.50;;;;;;;17.73;70.70;100912.38;5075964;28;20048;-56
2021/08/02 04:01:53;;;;;;;9.00;3.95;;;;;;;17.65;70.72;100908.59;5075147;28;20530;-59
2021/08/02 04:04:20;;;;;;;12.48;3.17;;;;;;;17.52;70.92;100918.16;5056935;28;20404;-56
2021/08/02 04:06:47;;;;;;;7.75;3.42;;;;;;;17.36;71.62;100922.84;5075287;28;20052;-59
2021/08/02 04:09:15;;;;;;;6.63;3.40;;;;;;;17.24;72.38;100922.06;5057906;28;20471;-59
2021/08/02 04:11:45;;;;;;;22.23;3.88;;;;;;;17.12;72.79;100931.25;5074819;28;20403;-58
2021/08/02 04:14:12;;;;;;;4.60;2.83;;;;;;;17.07;73.52;100930.72;5057626;28;20057;-59
2021/08/02 04:16:41;;;;;;;7.33;3.27;;;;;;;17.24;72.60;100941.56;5057344;28;20656;-58
2021/08/02 04:19:09;;;;;;;5.75;3.28;;;;;;;17.02;73.70;100945.66;5075461;28;20503;-60
2021/08/02 04:21:36;;;;;;;7.72;3.30;;;;;;;17.00;73.76;100950.75;5075144;28;20057;-57
2021/08/02 04:24:04;;;;;;;9.15;3.15;;;;;;;17.00;73.59;100950.75;5057008;28;20064;-57
2021/08/02 04:26:31;;;;;;;6.05;3.30;;;;;;;16.97;73.80;100947.88;5074810;28;20049;-58
2021/08/02 04:28:58;;;;;;;11.27;3.92;;;;;;;17.00;73.93;100956.34;5075401;28;20059;-59
2021/08/02 04:31:28;;;;;;;5.25;3.13;;;;;;;17.01;73.94;100951.59;5075142;28;20044;-59
2021/08/02 04:33:56;;;;;;;5.80;3.45;;;;;;;17.11;73.66;100945.53;5057185;28;20052;-58
2021/08/02 04:36:24;;;;;;;6.10;3.22;;;;;;;17.29;72.97;100944.91;5074792;28;20055;-58
2021/08/02 04:38:52;;;;;;;9.15;3.75;;;;;;;17.15;73.46;100946.47;5074982;28;20056;-60
2021/08/02 04:41:19;;;;;;;7.57;3.53;;;;;;;16.93;74.28;100944.19;5075141;28;20048;-57
2021/08/02 04:43:47;;;;;;;8.30;3.13;;;;;;;17.02;73.99;100947.63;5075056;28;20052;-63
2021/08/02 04:46:14;;;;;;;6.60;3.47;;;;;;;16.94;74.31;100946.63;5074696;28;20045;-58
2021/08/02 04:48:42;;;;;;;6.50;3.35;;;;;;;17.13;73.92;100940.44;5074512;28;20059;-60
2021/08/02 04:51:09;;;;;;;10.52;3.65;;;;;;;17.19;73.37;100941.81;5056814;28;20699;-60
2021/08/02 04:53:37;;;;;;;13.18;3.60;;;;;;;17.10;73.74;100939.16;5056622;28;20063;-58
2021/08/02 04:56:04;;;;;;;8.23;3.25;;;;;;;17.20;73.60;100947.03;5079074;28;20048;-58
2021/08/02 04:58:31;;;;;;;10.15;3.55;;;;;;;17.19;73.47;100941.81;5094530;28;20488;-57
2021/08/02 05:00:59;;;;;;;6.70;3.40;;;;;;;17.24;73.27;100947.94;5094746;28;20044;-58
2021/08/02 05:03:26;;;;;;;8.07;3.28;;;;;;;17.29;72.94;100939.34;5094660;28;20046;-60
2021/08/02 05:05:54;;;;;;;7.57;3.20;;;;;;;17.29;72.90;100941.31;5094448;28;20052;-58
2021/08/02 05:08:22;;;;;;;6.85;3.47;;;;;;;17.26;72.73;100933.69;5094268;28;20043;-60
2021/08/02 05:10:49;;;;;;;6.30;3.55;;;;;;;16.82;74.15;100952.19;5074349;28;20052;-60
2021/08/02 05:13:17;;;;;;;7.57;3.55;;;;;;;16.94;74.43;100956.94;5073302;28;20058;-59
2021/08/02 05:15:44;;;;;;;9.70;3.75;;;;;;;17.07;73.86;100950.97;5073776;28;20056;-58
2021/08/02 05:18:13;;;;;;;6.60;3.60;;;;;;;17.23;73.63;100953.84;5056361;28;20063;-58
2021/08/02 05:20:43;;;;;;;10.25;3.28;;;;;;;17.39;73.07;100949.97;5074079;28;20055;-57
2021/08/02 05:23:11;;;;;;;7.03;3.50;;;;;;;17.47;72.42;100945.47;5073952;28;20056;-58
2021/08/02 05:25:38;;;;;;;6.97;3.33;;;;;;;17.49;72.12;100952.28;5073651;28;20056;-59
2021/08/02 05:28:05;;;;;;;7.88;3.40;;;;;;;17.41;72.18;100961.59;5068237;28;20075;-59
2021/08/02 05:30:33;;;;;;;5.43;3.22;;;;;;;17.47;72.22;100960.19;5053762;28;20052;-57
2021/08/02 05:33:00;;;;;;;10.30;3.30;;;;;;;17.48;72.36;100955.44;5023447;28;20065;-56
2021/08/02 05:35:28;;;;;;;6.85;3.95;;;;;;;17.46;72.28;100966.94;5053713;28;20060;-58
2021/08/02 05:37:55;;;;;;;10.07;3.85;;;;;;;17.23;72.92;100960.22;5053746;28;20396;-58
2021/08/02 05:40:22;;;;;;;9.20;3.90;;;;;;;17.30;73.14;100966.00;5054061;28;20052;-59
2021/08/02 05:42:50;;;;;;;8.60;3.70;;;;;;;17.37;72.81;100971.78;5053709;28;20049;-59
2021/08/02 05:45:17;;;;;;;8.13;3.83;;;;;;;17.48;72.74;100972.97;5062439;28;20055;-58
2021/08/02 05:47:44;;;;;;;9.68;4.07;;;;;;;17.48;72.63;100969.34;5073500;28;20385;-57
2021/08/02 05:50:12;;;;;;;7.82;4.40;;;;;;;17.31;72.95;100964.84;5056277;28;20739;-59
2021/08/02 05:52:41;;;;;;;9.00;4.60;;;;;;;17.42;72.89;100968.75;5068828;28;20041;-61
2021/08/02 05:55:10;;;;;;;9.07;3.95;;;;;;;17.56;72.48;100973.97;5069497;28;20048;-58
2021/08/02 05:57:37;;;;;;;8.77;4.10;;;;;;;17.57;72.05;100972.81;5062889;28;20040;-57
2021/08/02 06:00:06;;;;;;;9.15;3.90;;;;;;;17.74;72.06;100972.50;5081183;28;20053;-58
2021/08/02 06:02:39;;;;;;;8.70;3.75;;;;;;;17.94;71.12;100974.25;5079805;28;20047;-58
2021/08/02 06:05:08;;;;;;;9.90;4.00;;;;;;;17.90;70.91;100979.72;5047295;28;20056;-58
2021/08/02 06:07:36;;;;;;;9.38;3.72;;;;;;;18.35;77.07;100981.31;5079872;28;20372;-58
2021/08/02 06:10:04;;;;;;;9.80;3.80;;;;;;;18.69;72.80;100973.06;5081820;28;20546;-60
2021/08/02 06:12:31;;;;;;;11.60;3.60;;;;;;;18.78;70.24;100978.47;5079152;28;20052;-59
2021/08/02 06:14:59;;;;;;;8.77;3.33;;;;;;;18.69;68.42;100970.28;5080816;28;20048;-57
2021/08/02 06:17:26;;;;;;;8.40;3.40;;;;;;;19.01;67.76;100971.03;5080650;28;20049;-58
2021/08/02 06:19:53;;;;;;;14.80;3.60;;;;;;;19.15;66.09;100976.94;5081032;28;20059;-61
2021/08/02 06:22:20;;;;;;;8.02;3.85;;;;;;;19.31;66.17;100974.97;5079374;28;20495;-57
2021/08/02 06:24:47;;;;;;;10.85;3.92;;;;;;;19.33;65.41;100978.19;5081949;28;20052;-57
2021/08/02 06:27:15;;;;;;;11.35;4.07;;;;;;;19.35;65.54;100970.25;5085586;28;20051;-57
2021/08/02 06:29:42;;;;;;;10.15;4.03;;;;;;;19.32;65.08;100982.16;5065984;28;20044;-58
2021/08/02 06:32:10;;;;;;;13.68;3.92;;;;;;;19.56;64.49;100979.06;5084623;28;20058;-59
2021/08/02 06:34:37;;;;;;;10.82;3.78;;;;;;;19.65;64.31;100981.69;5066221;28;20498;-59
2021/08/02 06:37:04;;;;;;;9.55;3.92;;;;;;;19.74;64.05;100974.66;5083641;28;20044;-60
2021/08/02 06:39:31;;;;;;;8.90;3.83;;;;;;;19.70;63.79;100984.97;5081967;28;20478;-59
2021/08/02 06:41:59;;;;;;;11.95;4.68;;;;;;;19.41;64.16;100982.75;5086254;28;20060;-60
2021/08/02 06:44:26;;;;;;;12.27;4.32;;;;;;;19.28;64.88;100986.03;5085138;28;20044;-58
2021/08/02 06:46:53;;;;;;;9.32;3.75;;;;;;;19.41;64.61;100991.13;5084314;28;20165;-58
2021/08/02 06:49:21;;;;;;;8.55;4.10;;;;;;;19.60;64.05;100991.16;5083495;28;20048;-60
2021/08/02 06:51:48;;;;;;;9.02;4.25;;;;;;;18.80;66.23;100995.66;5066896;28;20056;-60
2021/08/02 06:54:15;;;;;;;10.95;4.50;;;;;;;18.59;67.41;100998.72;5083033;28;20040;-58
2021/08/02 06:56:42;;;;;;;17.05;4.93;;;;;;;18.66;68.00;100996.13;5082156;28;20057;-59
2021/08/02 06:59:10;;;;;;;13.00;5.35;;;;;;;18.46;68.49;100994.41;5063792;28;20442;-60
2021/08/02 07:01:38;;;;;;;12.00;5.03;;;;;;;18.50;69.04;101008.44;5085184;28;20048;-58
2021/08/02 07:04:06;;;;;;;12.73;5.13;;;;;;;18.15;70.30;101002.72;5066270;28;20053;-57
2021/08/02 07:06:33;;;;;;;12.15;4.90;;;;;;;18.63;69.14;100991.28;5084144;28;20059;-59
2021/08/02 07:09:01;;;;;;;8.48;4.60;;;;;;;18.86;67.93;100995.00;5084439;28;20071;-60
2021/08/02 07:11:28;;;;;;;10.45;5.03;;;;;;;19.01;67.83;101002.56;5082857;28;20051;-60
2021/08/02 07:13:55;;;;;;;11.68;5.20;;;;;;;18.57;68.76;100998.28;5064719;28;20052;-60
2021/08/02 07:16:23;;;;;;;12.52;5.82;;;;;;;18.47;70.24;100998.00;5085552;28;20541;-60
2021/08/02 07:18:54;;;;;;;11.55;5.45;;;;;;;18.93;68.52;100997.19;5066773;28;20039;-60
2021/08/02 07:21:21;;;;;;;12.88;5.80;;;;;;;19.11;67.85;100995.59;5084881;28;20048;-59
2021/08/02 07:23:49;;;;;;;12.05;5.63;;;;;;;19.40;66.50;100997.91;5084816;28;20044;-59
2021/08/02 07:26:16;;;;;;;15.15;5.70;;;;;;;19.48;65.87;100999.66;5084385;28;20048;-60
2021/08/02 07:28:43;;;;;;;14.10;5.38;;;;;;;19.39;66.55;101003.84;5084696;28;20044;-57
2021/08/02 07:31:11;;;;;;;10.30;4.53;;;;;;;19.72;65.66;100996.59;5084809;28;20058;-59
2021/08/02 07:33:39;;;;;;;15.85;5.68;;;;;;;19.85;65.41;100997.25;5066950;28;20044;-59
2021/08/02 07:36:10;;;;;;;11.65;4.88;;;;;;;20.22;64.61;101000.41;5083269;28;20052;-59
2021/08/02 07:38:37;;;;;;;10.15;4.65;;;;;;;20.20;63.86;100997.97;5067016;28;20059;-59
2021/08/02 07:41:05;;;;;;;13.02;5.10;;;;;;;20.32;63.54;101002.56;5083678;28;20056;-59
2021/08/02 07:43:32;;;;;;;12.30;5.47;;;;;;;20.67;62.56;100995.63;5084911;28;20044;-59
2021/08/02 07:45:59;;;;;;;14.18;5.07;;;;;;;20.58;61.88;100995.06;5082610;28;20048;-60
2021/08/02 07:48:27;;;;;;;16.02;5.93;;;;;;;20.44;62.78;100996.78;5083600;28;20045;-59
2021/08/02 07:50:54;;;;;;;13.05;5.40;;;;;;;19.97;63.40;100992.31;5085004;28;20385;-59
2021/08/02 07:53:21;;;;;;;8.60;4.90;;;;;;;19.76;64.78;100999.44;5085090;28;20530;-59
2021/08/02 07:55:49;;;;;;;13.32;5.20;;;;;;;20.08;63.97;101006.50;5083605;28;20118;-59
2021/08/02 07:58:16;;;;;;;12.98;4.68;;;;;;;20.49;63.10;101004.88;5066293;28;20717;-60
2021/08/02 08:00:43;;;;;;;9.93;5.18;;;;;;;20.38;62.19;101009.50;5083544;28;21091;-59
2021/08/02 08:03:13;;;;;;;12.88;5.07;;;;;;;20.57;62.51;101001.84;5083023;28;20527;-59
2021/08/02 08:05:41;;;;;;;9.55;4.40;;;;;;;20.81;61.33;101003.44;5084340;28;20040;-59
2021/08/02 08:08:08;;;;;;;8.70;4.50;;;;;;;20.67;61.42;101004.00;5065959;28;20037;-59
2021/08/02 08:10:36;;;;;;;6.85;4.20;;;;;;;20.63;62.18;100999.53;5082624;28;20044;-61
2021/08/02 08:13:03;;;;;;;11.23;4.80;;;;;;;20.65;61.97;100992.38;5083498;28;20522;-59
2021/08/02 08:15:31;;;;;;;9.40;4.60;;;;;;;21.06;60.72;100996.28;5083928;28;20044;-59
2021/08/02 08:17:58;;;;;;;7.35;4.50;;;;;;;21.27;60.30;100997.38;5081718;28;20051;-59
2021/08/02 08:20:25;;;;;;;7.32;4.45;;;;;;;20.81;60.28;101003.44;5065397;28;20052;-60
2021/08/02 08:22:53;;;;;;;13.02;5.50;;;;;;;20.98;59.84;100995.34;5064324;28;20040;-59
2021/08/02 08:25:20;;;;;;;8.68;4.78;;;;;;;19.93;63.73;100999.00;5082590;28;20063;-61
2021/08/02 08:27:49;;;;;;;18.48;9.38;;;;;;;20.64;62.31;101001.94;5083326;28;20051;-60
2021/08/02 08:30:19;;;;;;;12.55;6.28;;;;;;;20.74;61.23;100997.72;5065361;28;20055;-59
2021/08/02 08:32:47;;;;;;;10.30;5.35;;;;;;;21.18;60.17;100996.84;5082779;28;20431;-60
2021/08/02 08:35:14;;;;;;;15.45;5.95;;;;;;;21.19;59.99;100994.84;5084965;28;20063;-60
2021/08/02 08:37:42;;;;;;;9.48;5.82;;;;;;;21.42;59.34;100998.41;5065506;28;20524;-60
2021/08/02 08:40:10;;;;;;;13.52;5.60;;;;;;;21.69;59.13;100987.94;5083175;28;20502;-59
2021/08/02 08:42:39;;;;;;;13.50;5.45;;;;;;;21.68;58.43;100980.69;5082763;28;20052;-59
2021/08/02 08:45:11;;;;;;;15.93;5.50;;;;;;;21.91;57.99;100978.63;5083362;28;20519;-60
2021/08/02 08:47:38;;;;;;;11.18;5.03;;;;;;;21.63;57.93;100987.47;5080191;28;20040;-57
2021/08/02 08:50:07;;;;;;;12.23;5.47;;;;;;;21.21;59.56;100989.69;5082602;28;20447;-58
2021/08/02 08:52:36;;;;;;;10.35;5.63;;;;;;;21.22;59.43;100980.91;5063674;28;20122;-58
2021/08/02 08:55:11;;;;;;;13.63;5.28;;;;;;;21.16;59.62;100985.22;5082798;28;20067;-59
2021/08/02 08:57:39;;;;;;;10.10;4.97;;;;;;;21.41;58.97;100984.75;5064236;28;20067;-59
2021/08/02 09:00:26;;;;;;;10.65;5.00;;;;;;;21.17;59.47;100986.00;5082291;28;20056;-59
2021/08/02 09:02:54;;;;;;;9.10;5.07;;;;;;;21.41;59.71;100991.16;5083195;28;20055;-58
2021/08/02 09:05:33;;;;;;;11.15;5.03;;;;;;;21.68;58.32;100980.69;5081695;28;20048;-64
2021/08/02 09:08:01;;;;;;;9.05;4.35;;;;;;;21.62;57.86;100983.03;5063667;28;20048;-56
2021/08/02 09:10:29;;;;;;;8.48;4.60;;;;;;;21.78;57.61;100982.84;5064746;28;20533;-58
2021/08/02 09:13:05;;;;;;;9.10;4.72;;;;;;;22.06;56.76;100988.78;5080256;28;20067;-58
2021/08/02 09:15:42;;;;;;;9.98;4.32;;;;;;;22.09;55.21;100977.59;5082567;28;20056;-57
2021/08/02 09:18:15;;;;;;;8.63;3.70;;;;;;;21.79;55.87;100976.84;5081973;28;20052;-57
2021/08/02 09:20:42;;;;;;;10.45;3.70;;;;;;;21.95;55.92;100980.25;5082918;28;20539;-58
2021/08/02 09:23:15;;;;;;;7.85;3.83;;;;;;;21.91;55.80;100982.22;5063648;28;20056;-58
2021/08/02 09:25:48;;;;;;;9.55;4.30;;;;;;;22.29;54.41;100981.84;5082935;28;20052;-60
2021/08/02 09:28:21;;;;;;;7.25;4.05;;;;;;;22.21;54.79;100977.34;5080609;28;20052;-59
2021/08/02 09:30:52;;;;;;;9.43;3.97;;;;;;;22.33;54.71;100977.03;5083075;28;20048;-60
2021/08/02 09:33:20;;;;;;;8.05;3.80;;;;;;;22.53;54.22;100974.00;5081568;28;20075;-60
2021/08/02 09:35:51;;;;;;;7.75;4.20;;;;;;;22.55;53.53;100974.47;5048402;28;20048;-57
2021/08/02 09:38:22;;;;;;;8.13;3.78;;;;;;;23.06;52.15;100972.47;5081621;28;20037;-57
2021/08/02 09:40:49;;;;;;;7.25;3.60;;;;;;;23.17;50.92;100971.31;5082201;28;20052;-56
2021/08/02 09:43:20;;;;;;;7.93;3.42;;;;;;;23.15;51.08;100968.09;5082211;28;20052;-58
2021/08/02 09:46:07;;;;;;;6.80;3.75;;;;;;;23.47;50.09;100968.31;5081190;28;20055;-59
2021/08/02 09:48:42;;;;;;;5.90;3.20;;;;;;;22.71;51.04;100970.22;5082170;28;20056;-57
2021/08/02 09:51:12;;;;;;;7.05;3.78;;;;;;;22.53;51.82;100971.22;5081247;28;20048;-57
2021/08/02 09:53:42;;;;;;;7.68;3.42;;;;;;;22.45;52.34;100967.56;5082787;28;20055;-57
2021/08/02 09:56:28;;;;;;;8.77;2.92;;;;;;;22.18;52.33;100978.09;5081780;28;20526;-58
2021/08/02 09:59:08;;;;;;;5.93;2.95;;;;;;;22.08;52.52;100964.78;5080486;28;20565;-57
2021/08/02 10:01:36;;;;;;;14.77;3.65;;;;;;;22.51;51.15;100968.00;5079491;28;20423;-60
2021/08/02 10:04:24;;;;;;;6.35;3.45;;;;;;;22.62;50.80;100964.13;5081226;28;20981;-58
2021/08/02 10:06:53;;;;;;;6.65;3.45;;;;;;;22.33;51.25;100965.03;5063917;28;20052;-57
2021/08/02 10:09:21;;;;;;;8.65;3.95;;;;;;;22.31;51.94;100962.63;5081036;28;20036;-59
2021/08/02 10:11:48;;;;;;;7.72;5.03;;;;;;;22.29;51.81;100958.56;5065076;28;20431;-58
2021/08/02 10:14:32;;;;;;;8.02;4.15;;;;;;;22.34;51.65;100961.03;5081955;28;20079;-58
2021/08/02 10:17:03;;;;;;;7.50;3.42;;;;;;;21.92;50.81;100964.19;5063802;28;20056;-59
2021/08/02 10:19:54;;;;;;;5.85;4.18;;;;;;;21.55;52.31;100979.34;5029250;28;20052;-58
2021/08/02 10:22:21;;;;;;;9.30;6.40;;;;;;;21.76;52.48;100965.59;5069593;28;20056;-58
2021/08/02 10:24:51;;;;;;;10.75;5.70;;;;;;;22.14;51.55;100973.66;5080142;28;20474;-58
2021/08/02 10:27:25;;;;;;;;;;;;;;;22.61;51.00;100970.94;5063618;28;20133;-59
2021/08/02 10:30:23;;;;;;;7.40;5.43;;;;;;;23.04;49.05;100963.63;5080477;28;19924;-60
2021/08/02 10:32:55;;;;;;;8.98;4.10;;;;;;;23.17;49.37;100959.31;5081661;28;20071;-59
2021/08/02 10:35:46;;;;;;;9.55;3.88;;;;;;;23.05;50.18;100966.03;5062808;28;20051;-57
2021/08/02 10:38:18;;;;;;;5.03;2.70;;;;;;;22.64;50.21;100958.91;5080464;28;20463;-59
2021/08/02 10:40:59;;;;;;;6.82;2.80;;;;;;;22.52;51.43;100964.00;5080485;28;20458;-58
2021/08/02 10:43:27;;;;;;;7.80;4.45;;;;;;;22.87;51.24;100962.31;5081295;28;20424;-59
2021/08/02 10:45:54;;;;;;;14.00;9.13;;;;;;;22.92;51.40;100963.94;5081834;28;20048;-60
2021/08/02 10:48:23;;;;;;;12.55;8.48;;;;;;;23.23;50.64;100964.16;5080728;28;20126;-58
2021/08/02 10:50:50;;;;;;;8.73;5.60;;;;;;;23.00;50.44;100957.16;5080649;28;20052;-58
2021/08/02 10:53:18;;;;;;;9.55;6.60;;;;;;;22.95;50.54;100961.16;5044513;28;20053;-59
2021/08/02 10:55:56;;;;;;;8.15;4.85;;;;;;;21.86;53.89;100960.13;5080524;28;20040;-58
2021/08/02 10:58:40;;;;;;;7.65;4.57;;;;;;;22.09;52.81;100972.00;5062668;28;20052;-58
2021/08/02 11:01:13;;;;;;;7.40;5.15;;;;;;;21.53;54.47;100965.69;5059390;28;20052;-57
2021/08/02 11:03:42;;;;;;;8.20;5.45;;;;;;;21.49;55.01;100967.66;5079406;28;20166;-58
2021/08/02 11:06:29;;;;;;;10.27;6.50;;;;;;;21.49;55.17;100969.66;5081919;28;20044;-58
2021/08/02 11:08:57;;;;;;;12.30;5.07;;;;;;;21.54;55.88;100967.31;5078970;28;20052;-59
2021/08/02 11:11:42;;;;;;;7.93;4.93;;;;;;;21.72;54.48;100959.94;5065371;28;20057;-57
2021/08/02 11:14:20;;;;;;;10.60;4.88;;;;;;;21.29;54.92;100971.78;5049508;28;20718;-60
2021/08/02 11:16:50;;;;;;;13.60;5.85;;;;;;;21.12;56.11;100972.34;5083634;28;20418;-55
2021/08/02 11:19:25;;;;;;;4.90;3.35;;;;;;;20.97;54.52;100954.47;5066534;28;20047;-55
2021/08/02 11:21:58;;;;;;;6.07;3.85;;;;;;;21.16;54.76;100956.41;5084989;28;20048;-57
2021/08/02 11:24:25;;;;;;;7.60;3.90;;;;;;;21.18;54.52;100951.22;5083794;28;20052;-58
2021/08/02 11:26:58;;;;;;;7.25;3.67;;;;;;;21.42;54.53;100959.16;5084292;28;20045;-58
2021/08/02 11:29:30;;;;;;;7.70;3.85;;;;;;;21.61;53.68;100944.16;5065934;28;20067;-60
2021/08/02 11:32:03;;;;;;;8.38;3.75;;;;;;;21.76;52.88;100949.56;5084345;28;20063;-61
2021/08/02 11:34:31;;;;;;;8.20;4.70;;;;;;;22.00;52.43;100945.47;5082329;28;20512;-58
2021/08/02 11:37:07;;;;;;;5.75;3.47;;;;;;;22.27;52.42;100938.50;5084791;28;20052;-58
2021/08/02 11:39:39;;;;;;;8.95;4.30;;;;;;;22.73;51.79;100936.94;5065397;28;20063;-59
2021/08/02 11:42:14;;;;;;;5.95;3.45;;;;;;;23.37;50.02;100930.53;5065988;28;20055;-58